createdAt,value
2019-06-15T00:03:11.602Z,26.15
2019-06-15T00:07:16.595Z,26.12
2019-06-15T00:11:20.895Z,26.09
2019-06-15T00:15:25.244Z,26.05
2019-06-15T00:19:29.543Z,26.00
2019-06-15T00:23:33.899Z,25.95
2019-06-15T00:27:38.295Z,25.88
2019-06-15T00:31:42.649Z,25.84
2019-06-15T00:35:47.120Z,25.83
2019-06-15T00:39:53.225Z,25.80
2019-06-15T00:43:57.561Z,25.74
2019-06-15T00:48:02.720Z,25.70
2019-06-15T00:52:07.011Z,25.66
2019-06-15T00:56:11.591Z,25.59
2019-06-15T01:00:16.299Z,25.52
2019-06-15T01:04:21.119Z,25.45
2019-06-15T01:08:25.772Z,25.43
2019-06-15T01:12:30.325Z,25.36
2019-06-15T01:16:34.602Z,25.30
2019-06-15T01:20:39.214Z,25.28
2019-06-15T01:24:43.561Z,25.25
2019-06-15T01:28:47.889Z,25.22
2019-06-15T01:32:52.226Z,25.14
2019-06-15T01:36:56.556Z,25.04
2019-06-15T01:41:00.914Z,24.99
2019-06-15T01:45:05.640Z,24.94
2019-06-15T01:49:09.980Z,24.93
2019-06-15T01:53:14.322Z,24.90
2019-06-15T01:57:18.617Z,24.85
2019-06-15T02:01:22.964Z,24.75
2019-06-15T02:05:27.236Z,24.75
2019-06-15T02:09:31.559Z,24.78
2019-06-15T02:13:35.851Z,24.77
2019-06-15T02:17:40.388Z,24.79
2019-06-15T02:21:44.756Z,24.81
2019-06-15T02:25:49.267Z,24.79
2019-06-15T02:29:53.580Z,24.75
2019-06-15T02:33:58.126Z,24.70
2019-06-15T02:38:02.494Z,24.69
2019-06-15T02:42:06.828Z,24.64
2019-06-15T02:46:11.138Z,24.57
2019-06-15T02:50:15.847Z,24.50
2019-06-15T02:54:20.207Z,24.41
2019-06-15T02:58:24.507Z,24.31
2019-06-15T03:02:28.834Z,24.26
2019-06-15T03:06:33.155Z,24.22
2019-06-15T03:10:37.621Z,24.23
2019-06-15T03:14:42.220Z,24.20
2019-06-15T03:18:46.736Z,24.20
2019-06-15T03:22:51.049Z,24.23
2019-06-15T03:26:55.380Z,24.24
2019-06-15T03:30:59.743Z,24.27
2019-06-15T03:35:04.155Z,24.27
2019-06-15T03:39:09.515Z,24.28
2019-06-15T03:43:13.813Z,24.27
2019-06-15T03:47:18.397Z,24.28
2019-06-15T03:51:22.725Z,24.34
2019-06-15T03:55:27.567Z,24.37
2019-06-15T03:59:31.881Z,24.41
2019-06-15T04:03:36.222Z,24.49
2019-06-15T04:07:40.557Z,24.53
2019-06-15T04:11:44.867Z,24.61
2019-06-15T04:15:49.221Z,24.66
2019-06-15T04:19:53.781Z,24.70
2019-06-15T04:23:59.549Z,24.77
2019-06-15T04:28:04.087Z,24.84
2019-06-15T04:32:08.418Z,24.92
2019-06-15T04:36:12.745Z,24.99
2019-06-15T04:40:18.107Z,25.04
2019-06-15T04:44:22.745Z,25.07
2019-06-15T04:48:27.055Z,25.10
2019-06-15T04:52:31.569Z,25.13
2019-06-15T04:56:47.820Z,25.18
2019-06-15T05:00:41.942Z,25.22
2019-06-15T05:04:46.275Z,25.25
2019-06-15T05:08:50.568Z,25.28
2019-06-15T05:12:54.959Z,25.29
2019-06-15T05:16:59.696Z,25.35
2019-06-15T05:21:04.007Z,25.35
2019-06-15T05:25:08.335Z,25.39
2019-06-15T05:29:12.659Z,25.45
2019-06-15T05:33:17.216Z,25.52
2019-06-15T05:37:21.540Z,25.61
2019-06-15T05:41:25.955Z,25.74
2019-06-15T05:45:30.317Z,26.00
2019-06-15T05:49:34.659Z,26.17
2019-06-15T05:53:39.161Z,26.29
2019-06-15T05:57:43.491Z,26.46
2019-06-15T06:01:48.292Z,26.68
2019-06-15T06:05:53.226Z,27.01
2019-06-15T06:09:57.563Z,27.33
2019-06-15T06:14:02.083Z,27.57
2019-06-15T06:18:06.382Z,27.84
2019-06-15T06:22:10.719Z,28.11
2019-06-15T06:26:15.209Z,28.33
2019-06-15T06:30:20.794Z,28.51
2019-06-15T06:34:25.564Z,28.69
2019-06-15T06:38:29.892Z,28.87
2019-06-15T06:42:34.620Z,29.04
2019-06-15T06:46:39.017Z,29.16
2019-06-15T06:50:44.168Z,29.32
2019-06-15T06:54:48.491Z,29.43
2019-06-15T06:58:53.235Z,29.51
2019-06-15T07:02:57.578Z,29.63
2019-06-15T07:07:02.200Z,29.76
2019-06-15T07:11:06.516Z,29.90
2019-06-15T07:15:11.069Z,30.12
2019-06-15T07:19:15.398Z,30.31
2019-06-15T07:23:19.709Z,30.48
2019-06-15T07:27:24.134Z,30.61
2019-06-15T07:31:28.434Z,30.68
2019-06-15T07:35:32.960Z,30.67
2019-06-15T07:39:37.312Z,30.65
2019-06-15T07:43:41.758Z,30.53
2019-06-15T07:47:46.069Z,30.52
2019-06-15T07:51:50.383Z,30.62
2019-06-15T07:55:54.697Z,30.79
2019-06-15T07:59:59.030Z,30.83
2019-06-15T08:04:03.358Z,30.73
2019-06-15T08:08:08.098Z,30.70
2019-06-15T08:12:12.554Z,30.74
2019-06-15T08:16:16.878Z,30.75
2019-06-15T08:20:25.174Z,30.79
2019-06-15T08:24:29.539Z,30.73
2019-06-15T08:28:40.191Z,30.83
2019-06-15T08:32:40.075Z,30.91
2019-06-15T08:36:44.415Z,31.05
2019-06-15T08:40:48.734Z,31.15
2019-06-15T08:44:53.040Z,31.14
2019-06-15T08:48:57.371Z,31.12
2019-06-15T08:53:01.710Z,31.38
2019-06-15T08:57:06.278Z,31.55
2019-06-15T09:01:10.587Z,31.79
2019-06-15T09:05:15.136Z,32.00
2019-06-15T09:09:19.998Z,32.09
2019-06-15T09:13:24.303Z,32.18
2019-06-15T09:17:28.665Z,32.32
2019-06-15T09:21:33.181Z,32.31
2019-06-15T09:25:37.584Z,32.24
2019-06-15T09:29:42.172Z,32.25
2019-06-15T09:33:46.484Z,32.32
2019-06-15T09:37:50.834Z,32.44
2019-06-15T09:41:55.177Z,32.57
2019-06-15T09:45:59.719Z,32.62
2019-06-15T09:50:04.476Z,32.60
2019-06-15T09:54:08.977Z,32.70
2019-06-15T09:58:13.267Z,32.78
2019-06-15T10:02:17.987Z,32.98
2019-06-15T10:06:22.306Z,33.21
2019-06-15T10:10:26.605Z,33.39
2019-06-15T10:14:31.174Z,33.58
2019-06-15T10:18:38.659Z,33.66
2019-06-15T10:22:41.559Z,33.69
2019-06-15T10:26:46.369Z,33.81
2019-06-15T10:30:50.707Z,33.86
2019-06-15T10:34:55.047Z,33.85
2019-06-15T10:38:59.625Z,33.84
2019-06-15T10:43:03.969Z,33.94
2019-06-15T10:47:08.495Z,34.03
2019-06-15T10:51:12.822Z,34.13
2019-06-15T10:55:17.389Z,34.29
2019-06-15T10:59:21.676Z,34.43
2019-06-15T11:03:26.026Z,34.49
2019-06-15T11:07:30.352Z,34.46
2019-06-15T11:11:34.692Z,34.51
2019-06-15T11:15:40.668Z,34.54
2019-06-15T11:19:44.991Z,34.52
2019-06-15T11:23:49.615Z,34.58
2019-06-15T11:27:53.910Z,34.55
2019-06-15T11:31:58.430Z,34.49
2019-06-15T11:36:02.735Z,34.48
2019-06-15T11:40:07.451Z,34.36
2019-06-15T11:44:11.789Z,34.20
2019-06-15T11:48:16.086Z,34.20
2019-06-15T11:52:20.426Z,34.26
2019-06-15T11:56:24.909Z,34.34
2019-06-15T12:00:32.124Z,34.32
2019-06-15T12:04:36.688Z,34.31
2019-06-15T12:08:41.490Z,34.38
2019-06-15T12:12:45.818Z,34.51
2019-06-15T12:16:50.396Z,34.58
2019-06-15T12:20:54.712Z,34.67
2019-06-15T12:24:59.265Z,34.78
2019-06-15T12:29:03.591Z,34.81
2019-06-15T12:33:08.000Z,34.83
2019-06-15T12:37:12.575Z,34.93
2019-06-15T12:41:17.337Z,35.07
2019-06-15T12:45:21.973Z,35.04
2019-06-15T12:49:26.350Z,35.00
2019-06-15T12:53:31.319Z,34.93
2019-06-15T12:57:35.656Z,34.78
2019-06-15T13:01:40.058Z,34.72
2019-06-15T13:05:44.443Z,34.64
2019-06-15T13:09:48.974Z,34.62
2019-06-15T13:13:53.316Z,34.74
2019-06-15T13:17:57.704Z,34.89
2019-06-15T13:22:05.596Z,35.00
2019-06-15T13:26:08.134Z,35.00
2019-06-15T13:30:19.409Z,35.03
2019-06-15T13:34:24.294Z,35.04
2019-06-15T13:38:28.829Z,35.02
2019-06-15T13:42:33.380Z,34.94
2019-06-15T13:46:37.764Z,34.79
2019-06-15T13:50:42.118Z,34.66
2019-06-15T13:54:46.711Z,34.62
2019-06-15T13:58:51.033Z,34.61
2019-06-15T14:02:55.663Z,34.62
2019-06-15T14:07:00.837Z,34.58
2019-06-15T14:11:05.178Z,34.50
2019-06-15T14:15:09.634Z,34.49
2019-06-15T14:19:14.266Z,34.56
2019-06-15T14:23:19.206Z,34.54
2019-06-15T14:27:23.469Z,34.47
2019-06-15T14:31:27.807Z,34.36
2019-06-15T14:35:32.149Z,34.29
2019-06-15T14:39:36.496Z,34.28
2019-06-15T14:43:40.909Z,34.29
2019-06-15T14:47:45.244Z,34.32
2019-06-15T14:51:51.064Z,34.33
2019-06-15T14:55:56.540Z,34.30
2019-06-15T15:00:04.982Z,34.32
2019-06-15T15:04:07.017Z,34.35
2019-06-15T15:08:11.887Z,34.38
2019-06-15T15:12:16.248Z,34.39
2019-06-15T15:16:20.828Z,34.39
2019-06-15T15:20:26.392Z,34.42
2019-06-15T15:24:33.422Z,34.43
2019-06-15T15:28:39.578Z,34.45
2019-06-15T15:32:46.655Z,34.41
2019-06-15T15:36:50.605Z,34.37
2019-06-15T15:40:56.108Z,34.23
2019-06-15T15:45:00.896Z,34.14
2019-06-15T15:49:07.040Z,34.05
2019-06-15T15:53:11.617Z,34.05
2019-06-15T15:57:17.222Z,34.01
2019-06-15T16:01:21.907Z,33.93
2019-06-15T16:05:26.572Z,33.87
2019-06-15T16:09:31.095Z,33.79
2019-06-15T16:13:35.446Z,33.76
2019-06-15T16:17:39.968Z,33.76
2019-06-15T16:21:46.828Z,33.73
2019-06-15T16:25:50.591Z,33.69
2019-06-15T16:29:56.490Z,33.61
2019-06-15T16:34:00.987Z,33.54
2019-06-15T16:38:06.824Z,33.50
2019-06-15T16:42:11.432Z,33.40
2019-06-15T16:46:17.260Z,33.36
2019-06-15T16:50:21.848Z,33.30
2019-06-15T16:54:27.047Z,33.24
2019-06-15T16:58:31.546Z,33.21
2019-06-15T17:02:36.864Z,33.18
2019-06-15T17:06:41.246Z,33.12
2019-06-15T17:10:45.877Z,33.08
2019-06-15T17:14:50.184Z,32.98
2019-06-15T17:18:56.251Z,32.86
2019-06-15T17:23:00.793Z,32.79
2019-06-15T17:27:06.105Z,32.67
2019-06-15T17:31:10.657Z,32.60
2019-06-15T17:35:16.949Z,32.53
2019-06-15T17:39:20.966Z,32.45
2019-06-15T17:43:26.887Z,32.37
2019-06-15T17:47:31.797Z,32.30
2019-06-15T17:51:36.787Z,32.24
2019-06-15T17:55:41.363Z,32.16
2019-06-15T17:59:47.031Z,32.09
2019-06-15T18:03:54.622Z,32.02
2019-06-15T18:08:00.878Z,31.94
2019-06-15T18:12:06.414Z,31.84
2019-06-15T18:16:10.218Z,31.75
2019-06-15T18:20:16.193Z,31.66
2019-06-15T18:24:20.553Z,31.59
2019-06-15T18:28:26.532Z,31.49
2019-06-15T18:32:31.028Z,31.39
2019-06-15T18:36:36.570Z,31.27
2019-06-15T18:40:41.343Z,31.14
2019-06-15T18:44:47.918Z,31.05
2019-06-15T18:48:52.417Z,30.93
2019-06-15T18:52:56.768Z,30.85
2019-06-15T18:57:01.106Z,30.77
2019-06-15T19:01:06.937Z,30.70
2019-06-15T19:05:11.757Z,30.63
2019-06-15T19:09:16.402Z,30.59
2019-06-15T19:13:20.755Z,30.55
2019-06-15T19:17:25.251Z,30.48
2019-06-15T19:21:29.571Z,30.43
2019-06-15T19:25:36.371Z,30.35
2019-06-15T19:29:40.373Z,30.27
2019-06-15T19:33:46.876Z,30.21
2019-06-15T19:37:51.074Z,30.14
2019-06-15T19:41:56.283Z,30.13
2019-06-15T19:46:01.132Z,30.13
2019-06-15T19:50:06.560Z,30.07
2019-06-15T19:54:12.476Z,30.02
2019-06-15T19:58:16.866Z,29.96
2019-06-15T20:02:21.187Z,29.85
2019-06-15T20:06:26.035Z,29.73
2019-06-15T20:10:30.455Z,29.65
2019-06-15T20:14:36.742Z,29.53
2019-06-15T20:18:41.247Z,29.44
2019-06-15T20:22:46.788Z,29.36
2019-06-15T20:26:51.322Z,29.29
2019-06-15T20:30:57.046Z,29.22
2019-06-15T20:35:16.255Z,29.15
2019-06-15T20:39:08.941Z,29.09
2019-06-15T20:43:13.247Z,29.03
2019-06-15T20:47:17.791Z,28.92
2019-06-15T20:51:22.954Z,28.80
2019-06-15T20:55:31.588Z,28.73
2019-06-15T20:59:38.702Z,28.65
2019-06-15T21:03:43.600Z,28.59
2019-06-15T21:07:47.910Z,28.51
2019-06-15T21:11:52.219Z,28.45
2019-06-15T21:15:56.996Z,28.42
2019-06-15T21:20:01.377Z,28.35
2019-06-15T21:24:06.402Z,28.25
2019-06-15T21:28:11.274Z,28.17
2019-06-15T21:32:15.588Z,28.08
2019-06-15T21:36:19.932Z,28.05
2019-06-15T21:40:27.067Z,28.03
2019-06-15T21:44:30.365Z,28.01
2019-06-15T21:48:36.423Z,28.01
2019-06-15T21:52:40.948Z,27.97
2019-06-15T21:56:45.306Z,27.94
2019-06-15T22:01:01.453Z,27.88
2019-06-15T22:05:07.182Z,27.80
2019-06-15T22:09:13.352Z,27.72
2019-06-15T22:13:17.755Z,27.64
2019-06-15T22:17:22.317Z,27.58
2019-06-15T22:21:28.068Z,27.52
2019-06-15T22:25:32.634Z,27.46
2019-06-15T22:29:36.950Z,27.41
2019-06-15T22:33:41.251Z,27.36
2019-06-15T22:37:46.768Z,27.28
2019-06-15T22:41:51.513Z,27.21
2019-06-15T22:45:56.349Z,27.16
2019-06-15T22:50:00.751Z,27.11
2019-06-15T22:54:05.054Z,27.04
2019-06-15T22:58:09.542Z,26.93
2019-06-15T23:02:13.855Z,26.88
2019-06-15T23:06:33.526Z,26.79
2019-06-15T23:10:25.240Z,26.76
2019-06-15T23:14:29.541Z,26.73
2019-06-15T23:18:33.895Z,26.72
2019-06-15T23:22:38.216Z,26.67
2019-06-15T23:26:42.531Z,26.62
2019-06-15T23:30:47.390Z,26.59
2019-06-15T23:34:51.770Z,26.56
2019-06-15T23:38:57.043Z,26.49
2019-06-15T23:43:01.441Z,26.41
2019-06-15T23:47:06.200Z,26.36
2019-06-15T23:51:10.518Z,26.29
2019-06-15T23:55:14.951Z,26.28
2019-06-15T23:59:19.265Z,26.24
